This is the latest recevied weather packets stored in our database for station/object F8KGK-5. If no packets are shown the sender has not sent any weather packets the latest 10 day(s).
| Time | Temp. | Humidity | Pressure | Rain* | Wind** | Luminosity | Snow |
|---|---|---|---|---|---|---|---|
| 1787782055 | 23.33° C | 58% | 1002.4 hPa | 0 mm | - | - | - |
| 1787780255 | 23.33° C | 58% | 1003 hPa | 0 mm | - | - | - |
| 1787778454 | 23.33° C | 59% | 1003.5 hPa | 0 mm | - | - | - |
| 1787776655 | 22.78° C | 60% | 1003.5 hPa | 0 mm | - | - | - |
| 1787774854 | 22.78° C | 62% | 1003.5 hPa | 0 mm | - | - | - |
| 1787773055 | 23.89° C | 56% | 1003.9 hPa | 0 mm | - | - | - |
| 1787771255 | 24.44° C | 54% | 1003.9 hPa | 0 mm | - | - | - |
| 1787769455 | 25.56° C | 51% | 1004 hPa | 0 mm | - | - | - |
| 1787767654 | 26.11° C | 48% | 1004.4 hPa | 0 mm | - | - | - |
| 1787765855 | 26.67° C | 47% | 1004.3 hPa | 0 mm | - | - | - |
| 1787764055 | 27.22° C | 45% | 1004.3 hPa | 0 mm | - | - | - |
| 1787762255 | 28.33° C | 43% | 1004.4 hPa | 0 mm | - | - | - |
| 1787760454 | 29.44° C | 42% | 1004.5 hPa | 0 mm | - | - | - |
| 1787758655 | 28.89° C | 43% | 1004.8 hPa | 0 mm | - | - | - |
| 1787756855 | 29.44° C | 42% | 1005 hPa | 0 mm | - | - | - |
| 1787755055 | 33.89° C | 35% | 1005.2 hPa | 0 mm | - | - | - |
| 1787753254 | 35.56° C | 33% | 1005.7 hPa | 0 mm | - | - | - |
| 1787751455 | 36.67° C | 34% | 1006.1 hPa | 0 mm | - | - | - |
| 1787749655 | 36.11° C | 37% | 1006.5 hPa | 0 mm | - | - | - |
| 1787747855 | 31.11° C | 42% | 1006.8 hPa | 0 mm | - | - | - |
| 1787746055 | 34.44° C | 38% | 1006.9 hPa | 0 mm | - | - | - |
| 1787744254 | 33.33° C | 39% | 1007 hPa | 0 mm | - | - | - |
| 1787742455 | 31.11° C | 41% | 1007.2 hPa | 0 mm | - | - | - |
| 1787740655 | 30° C | 44% | 1007.5 hPa | 0 mm | - | - | - |
| 1787738854 | 28.89° C | 50% | 1007.7 hPa | 0 mm | - | - | - |
* Rain latest hour (hover to see other rain measurements)
** Current wind speed in m/s (hover to see current wind gust speed)